Canso, Canada
Current Conditions -  °F | °C
As of 3:00 PM on Thursday 23 Oct 2014 (Local Time) from CYPD Reporting Station
Overcast Overcast  
Wind Chill: 55°   Ceiling: 12000
Heat Index: 55°   Visibility: 9mi
Dew Point: 48°   Wind: 16mph
Humidity: 77%   Direction: 80°E
Pressure: 30.06"   Gusts: 25mph
Location:  45.34°N, 61°W
Report Text: CYPD 231800Z AUTO 08014G22KT 9SM FEW075 OVC120 13/09 A3006 RMK SLP181
Loading
Personal Weather Stations






























Interactive Weather Map
Tropical Storm Tracking
New forecast layout! Learn more

10-Day Weather Forecast

Advertisements
Track Severe Weather on mobile